Time;durP1;ratioP1;P1;durP2;ratioP2;P2;SDS_P1;SDS_P2;PMS_P1;PMS_P2;Temp;Humidity;BMP_temperature;BMP_pressure;BME280_temperature;BME280_humidity;BME280_pressure;Samples;Min_cycle;Max_cycle;Signal;HPM_P1;HPM_P2
2022/06/14 00:01:03;;;;;;;7.47;3.42;;;9.60;99.90;;;;;;5094036;28;20043;-82
2022/06/14 00:03:41;;;;;;;10.00;3.55;;;9.50;99.90;;;;;;5093833;28;20047;-83
2022/06/14 00:06:12;;;;;;;8.07;2.88;;;9.80;99.90;;;;;;5093677;28;20052;-82
2022/06/14 00:08:38;;;;;;;12.63;3.80;;;9.50;99.90;;;;;;5093870;28;20139;-84
2022/06/14 00:11:08;;;;;;;15.02;3.38;;;10.10;99.90;;;;;;5093669;28;20486;-82
2022/06/14 00:13:34;;;;;;;12.85;3.75;;;9.60;99.90;;;;;;5093610;28;20554;-83
2022/06/14 00:15:59;;;;;;;11.07;3.60;;;10.10;99.90;;;;;;5093532;28;20128;-83
2022/06/14 00:18:25;;;;;;;10.95;3.47;;;10.10;99.90;;;;;;5093558;28;20143;-84
2022/06/14 00:20:52;;;;;;;11.93;3.25;;;9.60;99.90;;;;;;5092977;28;20040;-83
2022/06/14 00:23:18;;;;;;;15.05;3.00;;;9.60;99.90;;;;;;5093303;28;20494;-82
2022/06/14 00:25:47;;;;;;;11.85;3.55;;;9.60;99.90;;;;;;5093423;28;20048;-83
2022/06/14 00:28:15;;;;;;;9.07;3.28;;;9.60;99.90;;;;;;5093347;28;20043;-82
2022/06/14 00:30:43;;;;;;;14.40;3.50;;;9.60;99.90;;;;;;5093446;28;20055;-82
2022/06/14 00:33:09;;;;;;;12.50;3.33;;;9.60;99.90;;;;;;5092124;28;20111;-83
2022/06/14 00:35:35;;;;;;;12.27;3.30;;;9.60;99.90;;;;;;5092795;28;20586;-84
2022/06/14 00:38:01;;;;;;;12.30;3.13;;;9.50;99.90;;;;;;5093204;28;20153;-84
2022/06/14 00:40:30;;;;;;;13.88;3.40;;;9.60;99.90;;;;;;5093180;28;20043;-85
2022/06/14 00:42:57;;;;;;;13.77;3.47;;;9.50;99.90;;;;;;5093104;28;20049;-85
2022/06/14 00:45:26;;;;;;;13.60;2.90;;;9.90;99.90;;;;;;5092170;28;20094;-82
2022/06/14 00:48:06;;;;;;;10.65;3.38;;;9.50;99.90;;;;;;5092832;28;20089;-83
2022/06/14 00:50:46;;;;;;;9.90;3.28;;;9.50;99.90;;;;;;5092686;28;20055;-83
2022/06/14 00:53:12;;;;;;;11.98;3.55;;;9.50;99.90;;;;;;5075054;28;20131;-84
2022/06/14 00:55:44;;;;;;;11.57;3.05;;;9.60;99.90;;;;;;5093067;28;20123;-84
2022/06/14 00:58:30;;;;;;;8.38;3.00;;;9.40;99.90;;;;;;5093040;28;20046;-83
2022/06/14 01:01:01;;;;;;;11.88;3.30;;;9.40;99.90;;;;;;5092599;28;20102;-83
2022/06/14 01:03:47;;;;;;;6.32;2.60;;;10.10;99.90;;;;;;5092435;28;20502;-83
2022/06/14 01:06:24;;;;;;;11.15;3.15;;;9.40;99.90;;;;;;5092882;28;20096;-83
2022/06/14 01:08:52;;;;;;;7.80;2.58;;;9.70;99.90;;;;;;5092568;28;20040;-82
2022/06/14 01:11:26;;;;;;;8.15;2.63;;;9.30;99.90;;;;;;5074777;28;20067;-82
2022/06/14 01:13:52;;;;;;;11.00;2.80;;;9.30;99.90;;;;;;5092936;28;20039;-83
2022/06/14 01:16:18;;;;;;;12.00;2.42;;;9.40;99.90;;;;;;5074438;28;20109;-84
2022/06/14 01:18:45;;;;;;;9.18;2.95;;;9.10;99.90;;;;;;5092660;28;20491;-82
2022/06/14 01:21:10;;;;;;;7.18;2.70;;;9.10;99.90;;;;;;5092160;28;20131;-83
2022/06/14 01:23:36;;;;;;;6.78;2.55;;;9.00;99.90;;;;;;5092327;28;20131;-85
2022/06/14 01:26:15;;;;;;;8.43;3.10;;;9.00;99.90;;;;;;5092267;28;20048;-83
2022/06/14 01:28:46;;;;;;;8.10;2.45;;;8.90;99.90;;;;;;5074093;28;20431;-83
2022/06/14 01:31:14;;;;;;;7.43;2.85;;;9.50;99.90;;;;;;5091858;28;20055;-83
2022/06/14 01:33:43;;;;;;;7.45;2.70;;;8.80;99.90;;;;;;5073828;28;20048;-83
2022/06/14 01:36:15;;;;;;;11.18;2.67;;;8.70;99.90;;;;;;5074107;28;20044;-83
2022/06/14 01:38:44;;;;;;;10.48;3.10;;;8.70;99.90;;;;;;5091906;28;20048;-83
2022/06/14 01:41:24;;;;;;;9.63;3.10;;;9.50;99.90;;;;;;5092228;28;20052;-81
2022/06/14 01:44:11;;;;;;;14.48;3.42;;;8.60;99.90;;;;;;5091928;28;20102;-82
2022/06/14 01:46:46;;;;;;;13.63;3.83;;;8.60;99.90;;;;;;5092162;28;20044;-84
2022/06/14 01:52:36;;;;;;;12.77;3.28;;;8.60;99.90;;;;;;5091443;28;20411;-82
2022/06/14 01:55:41;;;;;;;13.80;4.65;;;8.60;99.90;;;;;;5091673;28;20051;-84
2022/06/14 01:58:18;;;;;;;7.50;3.13;;;8.60;99.90;;;;;;5091526;28;20093;-83
2022/06/14 02:01:18;;;;;;;10.60;2.90;;;8.50;99.90;;;;;;5091578;28;20040;-83
2022/06/14 02:07:03;;;;;;;14.48;3.92;;;8.50;99.90;;;;;;5028855;28;20062;-84
2022/06/14 02:09:40;;;;;;;8.73;3.53;;;8.60;99.90;;;;;;5028631;28;20049;-83
2022/06/14 02:12:11;;;;;;;9.05;3.47;;;8.60;99.90;;;;;;5028714;28;20136;-83
2022/06/14 02:14:59;;;;;;;15.15;3.72;;;9.30;99.90;;;;;;5028905;28;20045;-82
2022/06/14 02:17:36;;;;;;;10.20;3.25;;;8.50;99.90;;;;;;5028586;28;20413;-83
2022/06/14 02:20:08;;;;;;;11.65;4.00;;;8.50;99.90;;;;;;5028675;28;20044;-83
2022/06/14 02:22:45;;;;;;;11.27;3.97;;;8.50;99.90;;;;;;5028361;28;20054;-82
2022/06/14 02:25:27;;;;;;;18.63;5.18;;;8.60;99.90;;;;;;5011779;28;20072;-83
2022/06/14 02:27:57;;;;;;;11.15;3.30;;;8.60;99.90;;;;;;5028356;28;20541;-84
2022/06/14 02:30:30;;;;;;;10.25;3.70;;;9.10;99.90;;;;;;5028372;28;20586;-82
2022/06/14 02:33:12;;;;;;;12.77;3.92;;;8.60;99.90;;;;;;5038369;28;20056;-83
2022/06/14 02:36:11;;;;;;;8.50;4.00;;;8.60;99.90;;;;;;5091015;28;20048;-83
2022/06/14 02:38:47;;;;;;;12.63;3.85;;;8.50;99.90;;;;;;5068514;28;20056;-81
2022/06/14 02:41:29;;;;;;;10.18;3.92;;;8.50;99.90;;;;;;5090668;28;20055;-83
2022/06/14 02:44:08;;;;;;;13.63;3.75;;;8.40;99.90;;;;;;5090561;28;20036;-82
2022/06/14 02:46:51;;;;;;;13.02;4.13;;;8.50;99.90;;;;;;5090697;28;20081;-83
2022/06/14 02:49:32;;;;;;;8.57;3.47;;;8.40;99.90;;;;;;5091012;28;20051;-82
2022/06/14 02:52:12;;;;;;;8.98;3.53;;;8.40;99.90;;;;;;5090721;28;20081;-84
2022/06/14 02:54:44;;;;;;;9.63;3.58;;;8.30;99.90;;;;;;5072365;28;20843;-82
2022/06/14 02:57:18;;;;;;;11.75;3.58;;;8.30;99.90;;;;;;5072673;28;20495;-84
2022/06/14 02:59:58;;;;;;;10.82;3.78;;;8.30;99.90;;;;;;5090874;28;20036;-83
2022/06/14 03:02:26;;;;;;;8.30;3.72;;;8.30;99.90;;;;;;5090829;28;20059;-82
2022/06/14 03:05:07;;;;;;;13.90;4.25;;;8.30;99.90;;;;;;5072424;28;20043;-83
2022/06/14 03:07:39;;;;;;;11.32;4.05;;;8.30;99.90;;;;;;5090147;28;20048;-83
2022/06/14 03:10:06;;;;;;;11.88;3.92;;;8.30;99.90;;;;;;5090559;28;20538;-82
2022/06/14 03:12:52;;;;;;;8.40;3.63;;;8.30;99.90;;;;;;5090760;28;20097;-81
2022/06/14 03:15:38;;;;;;;11.63;4.00;;;8.30;99.90;;;;;;5072445;28;20040;-83
2022/06/14 03:18:36;;;;;;;9.30;3.90;;;8.30;99.90;;;;;;5090629;28;20101;-83
2022/06/14 03:21:18;;;;;;;8.18;3.90;;;8.30;99.90;;;;;;5090261;28;20127;-82
2022/06/14 03:23:53;;;;;;;12.15;4.93;;;8.30;99.90;;;;;;5090421;28;20445;-82
2022/06/14 03:26:26;;;;;;;10.02;3.53;;;8.30;99.90;;;;;;5090449;28;20085;-79
2022/06/14 03:28:59;;;;;;;11.27;3.60;;;8.30;99.90;;;;;;5090343;28;20044;-83
2022/06/14 03:31:38;;;;;;;9.30;3.53;;;8.30;99.90;;;;;;5072115;28;20143;-83
2022/06/14 03:34:03;;;;;;;11.23;3.70;;;8.30;99.90;;;;;;5090281;28;20066;-82
2022/06/14 03:36:30;;;;;;;12.35;3.85;;;8.30;99.90;;;;;;5090289;28;20044;-82
2022/06/14 03:39:02;;;;;;;11.63;4.32;;;8.30;99.90;;;;;;5090297;28;20047;-81
2022/06/14 03:41:33;;;;;;;8.75;4.00;;;8.30;99.90;;;;;;5089916;28;20394;-82
2022/06/14 03:44:01;;;;;;;11.73;4.13;;;8.30;99.90;;;;;;5090393;28;20043;-82
2022/06/14 03:46:32;;;;;;;7.97;4.07;;;8.40;99.90;;;;;;5090475;28;20070;-82
2022/06/14 03:49:06;;;;;;;8.98;3.85;;;8.40;99.90;;;;;;5090311;28;20050;-81
2022/06/14 03:51:52;;;;;;;8.52;4.13;;;8.40;99.90;;;;;;5071904;28;20135;-82
2022/06/14 03:54:39;;;;;;;12.02;4.30;;;8.40;99.90;;;;;;5090415;28;20048;-80
2022/06/14 03:57:16;;;;;;;10.35;4.15;;;8.40;99.90;;;;;;5089842;28;20130;-81
2022/06/14 04:00:06;;;;;;;10.68;4.35;;;8.40;99.90;;;;;;5090191;28;20047;-82
2022/06/14 04:02:58;;;;;;;11.65;4.22;;;8.40;99.90;;;;;;5027299;28;20126;-81
2022/06/14 04:05:37;;;;;;;9.70;4.20;;;8.40;99.90;;;;;;5027598;28;20061;-82
2022/06/14 04:08:08;;;;;;;13.88;4.40;;;8.40;99.90;;;;;;5027511;28;20053;-81
2022/06/14 04:10:44;;;;;;;10.93;4.57;;;8.40;99.90;;;;;;5027628;28;20045;-81
2022/06/14 04:13:36;;;;;;;10.60;4.40;;;8.50;99.90;;;;;;5027444;28;20072;-82
2022/06/14 04:16:26;;;;;;;10.90;4.15;;;8.50;99.90;;;;;;5027518;28;20503;-82
2022/06/14 04:19:15;;;;;;;10.40;4.20;;;8.50;99.90;;;;;;5027811;28;20085;-83
2022/06/14 04:22:05;;;;;;;10.25;3.92;;;8.60;99.90;;;;;;5014719;28;20069;-82
2022/06/14 04:24:57;;;;;;;8.55;4.22;;;9.20;99.90;;;;;;5031067;28;20089;-82
2022/06/14 04:27:31;;;;;;;11.10;4.22;;;8.60;99.90;;;;;;5030354;28;20088;-80
2022/06/14 04:30:19;;;;;;;11.50;4.55;;;8.70;99.90;;;;;;5030871;28;20049;-83
2022/06/14 04:32:48;;;;;;;8.90;4.38;;;8.80;99.90;;;;;;5030299;28;20050;-83
2022/06/14 04:35:31;;;;;;;9.38;4.75;;;8.90;99.90;;;;;;5030642;28;20505;-82
2022/06/14 04:38:14;;;;;;;12.88;4.90;;;9.00;99.90;;;;;;5030472;28;20077;-82
2022/06/14 04:40:48;;;;;;;14.73;4.88;;;9.00;99.90;;;;;;5090409;28;20086;-79
2022/06/14 04:43:20;;;;;;;13.13;5.47;;;9.10;99.90;;;;;;5092919;28;20048;-83
2022/06/14 04:46:09;;;;;;;13.63;5.13;;;9.20;99.90;;;;;;5092865;28;20052;-83
2022/06/14 04:48:41;;;;;;;16.67;5.80;;;9.80;99.90;;;;;;5092851;28;20052;-80
2022/06/14 04:51:32;;;;;;;15.10;5.18;;;9.40;99.90;;;;;;5092984;28;20048;-83
2022/06/14 04:54:02;;;;;;;13.82;4.72;;;9.50;99.90;;;;;;5074776;28;20052;-83
2022/06/14 04:56:37;;;;;;;14.35;5.22;;;9.60;99.90;;;;;;5092890;28;20048;-83
2022/06/14 04:59:08;;;;;;;10.52;5.00;;;9.70;99.90;;;;;;5092437;28;20032;-82
2022/06/14 05:01:53;;;;;;;16.83;5.55;;;9.90;99.90;;;;;;5092562;28;20106;-83
2022/06/14 05:04:37;;;;;;;16.67;5.22;;;9.90;99.90;;;;;;5074621;28;20152;-83
2022/06/14 05:07:16;;;;;;;16.00;5.30;;;10.00;99.90;;;;;;5092555;28;20054;-83
2022/06/14 05:10:07;;;;;;;15.23;5.35;;;10.00;99.90;;;;;;5092415;28;20119;-82
2022/06/14 05:12:54;;;;;;;15.32;5.80;;;10.20;99.90;;;;;;5092727;28;20067;-83
2022/06/14 05:15:40;;;;;;;19.50;5.20;;;10.20;99.90;;;;;;5092532;28;20048;-82
2022/06/14 05:18:36;;;;;;;14.60;4.50;;;10.30;99.90;;;;;;5092355;28;20055;-83
2022/06/14 05:21:05;;;;;;;;;;;10.40;99.90;;;;;;5029863;28;20095;-82
2022/06/14 05:23:41;;;;;;;13.10;4.50;;;10.50;99.90;;;;;;5009856;28;19973;-81
2022/06/14 05:26:25;;;;;;;20.90;4.90;;;10.60;99.90;;;;;;4993704;28;20072;-82
2022/06/14 05:29:15;;;;;;;16.15;4.72;;;10.70;99.90;;;;;;5009551;28;20041;-80
2022/06/14 05:31:59;;;;;;;17.58;5.00;;;10.90;99.90;;;;;;5009738;28;20057;-83
2022/06/14 05:34:34;;;;;;;14.50;4.38;;;11.00;99.90;;;;;;5010226;28;20095;-83
2022/06/14 05:37:22;;;;;;;13.30;4.53;;;11.20;99.90;;;;;;5009977;28;20052;-81
2022/06/14 05:39:57;;;;;;;7.70;3.88;;;11.90;99.90;;;;;;4993444;28;20058;-82
2022/06/14 05:42:29;;;;;;;11.30;4.00;;;11.50;99.90;;;;;;5009490;28;20053;-82
2022/06/14 05:44:59;;;;;;;15.48;4.35;;;12.10;99.90;;;;;;5009324;28;20128;-83
2022/06/14 05:47:36;;;;;;;14.35;3.85;;;12.10;99.90;;;;;;5009435;28;20046;-83
2022/06/14 05:50:09;;;;;;;11.50;3.53;;;11.90;99.90;;;;;;5009507;28;20460;-84
2022/06/14 05:52:43;;;;;;;11.07;3.65;;;12.10;99.90;;;;;;5009342;28;20054;-83
2022/06/14 05:55:15;;;;;;;16.17;4.40;;;12.20;99.90;;;;;;5009384;28;20100;-83
2022/06/14 05:57:49;;;;;;;14.18;3.92;;;12.60;99.90;;;;;;5030999;28;20538;-84
2022/06/14 06:00:43;;;;;;;12.13;4.07;;;12.50;99.90;;;;;;5069654;28;20048;-83
2022/06/14 06:03:40;;;;;;;9.98;3.75;;;12.60;99.90;;;;;;5028906;28;20054;-84
2022/06/14 06:06:11;;;;;;;10.25;3.85;;;12.80;99.90;;;;;;5029000;28;20053;-83
2022/06/14 06:09:00;;;;;;;15.40;4.00;;;12.90;99.90;;;;;;5028878;28;20084;-84
2022/06/14 06:11:32;;;;;;;10.63;3.50;;;13.00;99.90;;;;;;5028327;28;20136;-84
2022/06/14 06:14:11;;;;;;;10.20;3.08;;;13.10;99.90;;;;;;5012292;28;20057;-83
2022/06/14 06:17:03;;;;;;;12.80;3.65;;;13.30;99.90;;;;;;5028577;28;20534;-82
2022/06/14 06:19:52;;;;;;;12.65;3.70;;;13.50;99.90;;;;;;5029006;28;20053;-84
2022/06/14 06:22:42;;;;;;;9.25;3.40;;;13.60;99.90;;;;;;5028402;28;20451;-84
2022/06/14 06:25:14;;;;;;;15.25;3.38;;;14.10;99.90;;;;;;5027951;28;20103;-83
2022/06/14 06:27:47;;;;;;;11.63;3.13;;;14.30;99.90;;;;;;5028559;28;20050;-84
2022/06/14 06:30:23;;;;;;;14.90;3.58;;;14.10;99.90;;;;;;5028217;28;20445;-83
2022/06/14 06:32:49;;;;;;;13.88;2.90;;;14.20;99.90;;;;;;5011968;28;20140;-83
2022/06/14 06:35:15;;;;;;;8.45;2.35;;;14.40;99.90;;;;;;5028421;28;20050;-82
2022/06/14 06:37:54;;;;;;;10.38;2.53;;;14.50;99.90;;;;;;5028184;28;20048;-85
2022/06/14 06:40:23;;;;;;;11.02;2.60;;;14.70;99.90;;;;;;5066335;28;20099;-86
2022/06/14 06:43:02;;;;;;;10.05;2.63;;;14.60;99.90;;;;;;5072009;28;20104;-83
2022/06/14 06:45:35;;;;;;;6.95;1.75;;;15.10;99.90;;;;;;5072528;28;20048;-85
2022/06/14 06:48:32;;;;;;;9.35;2.45;;;15.20;99.90;;;;;;5090817;28;20487;-84
2022/06/14 06:51:02;;;;;;;6.55;1.80;;;15.50;99.90;;;;;;4991994;28;20561;-84
2022/06/14 06:53:50;;;;;;;9.82;1.83;;;15.60;99.90;;;;;;5008297;28;20447;-83
2022/06/14 06:56:28;;;;;;;6.75;1.83;;;15.90;99.90;;;;;;5008448;28;20097;-83
2022/06/14 06:59:24;;;;;;;5.97;2.17;;;16.30;99.90;;;;;;5008475;28;20486;-85
2022/06/14 07:02:16;;;;;;;9.35;1.88;;;16.40;99.90;;;;;;4992081;28;20062;-83
2022/06/14 07:07:53;;;;;;;11.70;2.00;;;16.60;99.90;;;;;;5007955;28;20133;-84
2022/06/14 07:10:22;;;;;;;9.15;2.47;;;16.80;99.90;;;;;;5008516;28;20104;-86
2022/06/14 07:13:02;;;;;;;10.35;2.28;;;17.10;99.90;;;;;;5008370;28;20073;-83
2022/06/14 07:15:50;;;;;;;10.80;2.65;;;17.00;99.90;;;;;;4991873;28;20053;-84
2022/06/14 07:18:26;;;;;;;5.82;1.73;;;17.40;99.90;;;;;;5007871;28;20045;-84
2022/06/14 07:21:03;;;;;;;6.93;1.80;;;17.70;99.90;;;;;;4991712;28;20094;-84
2022/06/14 07:23:56;;;;;;;6.80;1.60;;;17.80;99.90;;;;;;4990168;28;20110;-84
2022/06/14 07:26:35;;;;;;;7.03;1.45;;;17.90;99.90;;;;;;4988621;28;20046;-85
2022/06/14 07:29:11;;;;;;;6.93;1.95;;;18.20;99.90;;;;;;5070340;28;20060;-85
2022/06/14 07:31:42;;;;;;;6.40;1.45;;;18.50;99.90;;;;;;5070082;28;20053;-83
2022/06/14 07:34:09;;;;;;;8.25;1.60;;;18.80;99.90;;;;;;5051464;28;20053;-84
2022/06/14 07:36:48;;;;;;;10.50;1.38;;;19.00;99.90;;;;;;5070234;28;20575;-82
2022/06/14 07:39:30;;;;;;;6.03;1.83;;;18.80;99.90;;;;;;5070059;28;20106;-84
2022/06/14 07:42:19;;;;;;;7.63;1.48;;;18.90;99.90;;;;;;5070006;28;20129;-85
2022/06/14 07:45:00;;;;;;;8.10;1.40;;;19.00;99.90;;;;;;5051969;28;20056;-85
2022/06/14 07:47:45;;;;;;;9.13;1.42;;;19.00;99.90;;;;;;5069890;28;20099;-85
2022/06/14 07:50:22;;;;;;;7.63;1.63;;;19.20;99.90;;;;;;5052443;28;20071;-83
2022/06/14 07:52:50;;;;;;;4.30;1.38;;;18.90;99.90;;;;;;5036096;28;20439;-84
2022/06/14 07:55:28;;;;;;;7.10;1.48;;;18.50;99.90;;;;;;5073779;28;20060;-83
2022/06/14 07:58:02;;;;;;;4.78;1.40;;;18.30;99.90;;;;;;5039616;28;20084;-85
2022/06/14 08:04:01;;;;;;;8.32;1.73;;;18.20;99.90;;;;;;5055649;28;20056;-85
2022/06/14 08:06:35;;;;;;;6.28;1.20;;;18.40;99.90;;;;;;5073792;28;20054;-86
2022/06/14 08:09:29;;;;;;;6.07;1.25;;;18.40;99.90;;;;;;5073365;28;20045;-86
2022/06/14 08:11:58;;;;;;;6.03;1.60;;;18.60;99.90;;;;;;5039046;28;20051;-83
2022/06/14 08:14:47;;;;;;;5.15;1.17;;;18.70;99.90;;;;;;5055314;28;20044;-82
2022/06/14 08:17:25;;;;;;;8.73;1.50;;;19.10;99.90;;;;;;5073276;28;20384;-85
2022/06/14 08:20:21;;;;;;;5.68;1.33;;;19.50;99.90;;;;;;5073199;28;20045;-87
2022/06/14 08:23:07;;;;;;;7.22;1.35;;;19.60;99.90;;;;;;5054935;28;20056;-85
2022/06/14 08:25:37;;;;;;;5.03;1.35;;;19.30;99.90;;;;;;5073266;28;20052;-86
2022/06/14 08:28:25;;;;;;;7.78;1.25;;;19.30;99.90;;;;;;5055140;28;20508;-86
2022/06/14 08:31:26;;;;;;;5.18;1.42;;;19.60;99.90;;;;;;5073080;28;20057;-87
2022/06/14 08:34:02;;;;;;;6.68;1.40;;;19.60;99.90;;;;;;5038440;28;20083;-87
2022/06/14 08:37:08;;;;;;;10.73;1.55;;;19.70;99.90;;;;;;5038318;28;20087;-85
2022/06/14 08:39:44;;;;;;;5.45;1.40;;;20.20;99.90;;;;;;5072830;28;20048;-87
2022/06/14 08:42:37;;;;;;;5.50;1.02;;;19.90;99.90;;;;;;5072623;28;20048;-88
2022/06/14 08:45:14;;;;;;;4.68;1.25;;;19.40;99.90;;;;;;5072612;28;20053;-85
2022/06/14 08:47:49;;;;;;;4.53;1.00;;;19.40;99.90;;;;;;5038229;28;20064;-86
2022/06/14 08:50:37;;;;;;;7.40;1.50;;;19.20;99.90;;;;;;5054332;28;20049;-84
2022/06/14 08:53:20;;;;;;;6.72;1.70;;;19.40;99.90;;;;;;5054749;28;20055;-84
2022/06/14 08:56:09;;;;;;;6.00;1.60;;;19.40;99.90;;;;;;5072712;28;20040;-86
2022/06/14 08:58:48;;;;;;;7.57;1.50;;;19.40;99.90;;;;;;5072239;28;20041;-86
2022/06/14 09:01:34;;;;;;;10.38;2.05;;;19.20;99.90;;;;;;5038420;28;20102;-85
2022/06/14 09:04:41;;;;;;;6.32;1.13;;;19.30;99.90;;;;;;5072387;28;20048;-85
2022/06/14 09:07:57;;;;;;;3.90;1.30;;;19.30;99.90;;;;;;5072407;28;20052;-86
2022/06/14 09:11:00;;;;;;;9.00;1.60;;;19.90;99.90;;;;;;4993950;28;20076;-86
2022/06/14 09:13:46;;;;;;;4.63;1.17;;;20.00;99.90;;;;;;5009899;28;20145;-85
2022/06/14 09:16:32;;;;;;;4.28;1.25;;;19.50;99.90;;;;;;4993589;28;20062;-86
2022/06/14 09:19:22;;;;;;;4.75;1.13;;;19.30;99.90;;;;;;4993231;28;20053;-85
2022/06/14 09:22:17;;;;;;;5.03;0.88;;;19.40;99.90;;;;;;5013843;28;20064;-86
2022/06/14 09:25:00;;;;;;;4.30;0.93;;;19.70;99.90;;;;;;4990032;28;20058;-87
2022/06/14 09:27:44;;;;;;;3.20;1.08;;;20.20;99.90;;;;;;4990270;28;20693;-84
2022/06/14 09:30:36;;;;;;;4.73;1.00;;;20.50;99.90;;;;;;4990419;28;20532;-84
2022/06/14 09:33:17;;;;;;;5.22;1.08;;;20.70;99.90;;;;;;4990335;28;20057;-85
2022/06/14 09:36:08;;;;;;;1.98;0.90;;;21.00;99.90;;;;;;4990136;28;20550;-86
2022/06/14 09:38:55;;;;;;;5.90;1.20;;;21.30;99.90;;;;;;4990411;28;20516;-86
2022/06/14 09:41:37;;;;;;;6.50;1.30;;;21.00;99.90;;;;;;5028809;28;20053;-87
2022/06/14 09:44:17;;;;;;;4.90;1.15;;;21.10;99.90;;;;;;5032773;28;20170;-86
2022/06/14 09:47:21;;;;;;;4.30;1.20;;;20.60;99.90;;;;;;5057801;22;20052;-86
2022/06/14 09:50:08;;;;;;;4.07;0.90;;;20.40;99.90;;;;;;5033938;28;20087;-86
2022/06/14 09:53:00;;;;;;;4.15;0.90;;;20.70;99.90;;;;;;5017015;28;20082;-89
2022/06/14 09:56:07;;;;;;;5.65;1.25;;;21.10;99.90;;;;;;5051308;28;20055;-86
2022/06/14 09:58:54;;;;;;;5.07;1.00;;;21.60;99.90;;;;;;4989883;28;20146;-86
2022/06/14 10:01:43;;;;;;;4.30;1.20;;;21.60;99.90;;;;;;4989641;28;20089;-85
2022/06/14 10:04:30;;;;;;;3.90;1.30;;;21.40;99.90;;;;;;4989665;28;20129;-88
2022/06/14 10:07:14;;;;;;;5.60;1.33;;;21.00;99.90;;;;;;4989622;28;20089;-84
2022/06/14 10:09:48;;;;;;;2.72;1.00;;;20.90;99.90;;;;;;4989686;28;20105;-85
2022/06/14 10:12:39;;;;;;;3.95;0.73;;;20.70;99.90;;;;;;4989676;28;20050;-85
2022/06/14 10:15:30;;;;;;;2.88;1.05;;;20.60;99.90;;;;;;4997328;28;20050;-83
2022/06/14 10:18:40;;;;;;;2.80;0.82;;;20.60;99.90;;;;;;4989639;28;20050;-84
2022/06/14 10:21:15;;;;;;;2.78;0.80;;;20.40;99.90;;;;;;4950727;29;20093;-85
2022/06/14 10:24:15;;;;;;;5.45;1.50;;;20.30;99.90;;;;;;4950153;28;20051;-84
2022/06/14 10:29:54;;;;;;;4.93;1.30;;;20.00;99.90;;;;;;4970656;28;20058;-85
2022/06/14 10:32:20;;;;;;;;;;;20.00;99.90;;;;;;5009418;28;20121;-85
2022/06/14 10:35:10;;;;;;;8.00;1.55;;;19.90;99.90;;;;;;5008919;28;19922;-83
2022/06/14 10:37:56;;;;;;;2.67;0.70;;;19.80;99.90;;;;;;4975761;28;20065;-85
2022/06/14 10:40:57;;;;;;;6.03;1.25;;;19.80;99.90;;;;;;5008865;28;20065;-85
2022/06/14 10:43:54;;;;;;;5.05;1.35;;;19.80;99.90;;;;;;4931187;29;20055;-84
2022/06/14 10:46:29;;;;;;;5.53;0.98;;;19.60;99.90;;;;;;4930978;29;20154;-82
2022/06/14 10:49:13;;;;;;;4.60;1.45;;;19.70;99.90;;;;;;4931140;29;20106;-85
2022/06/14 10:51:59;;;;;;;6.50;1.30;;;19.60;99.90;;;;;;4931040;29;20055;-85
2022/06/14 10:54:47;;;;;;;7.05;1.65;;;19.40;99.90;;;;;;4931021;29;20844;-84
2022/06/14 10:57:40;;;;;;;4.75;1.20;;;19.50;99.90;;;;;;4945003;28;20059;-84
2022/06/14 11:00:11;;;;;;;4.65;1.20;;;19.60;99.90;;;;;;4969369;28;20612;-85
2022/06/14 11:02:58;;;;;;;5.32;1.27;;;19.50;99.90;;;;;;4969396;28;20050;-82
2022/06/14 11:05:50;;;;;;;7.18;1.60;;;19.70;99.90;;;;;;4969425;28;20050;-85
2022/06/14 11:08:33;;;;;;;4.90;1.45;;;19.70;99.90;;;;;;4953108;28;20059;-80
2022/06/14 11:11:14;;;;;;;3.58;1.38;;;19.80;99.90;;;;;;4969254;28;20607;-83
2022/06/14 11:14:06;;;;;;;4.63;1.10;;;19.90;99.90;;;;;;4952959;28;20098;-85
2022/06/14 11:16:53;;;;;;;4.10;1.10;;;19.80;99.90;;;;;;4969185;28;20061;-84
2022/06/14 11:19:31;;;;;;;5.88;1.33;;;19.80;99.90;;;;;;4976395;28;20051;-82
2022/06/14 11:21:59;;;;;;;4.53;1.20;;;19.80;99.90;;;;;;5032697;28;20045;-83
2022/06/14 11:24:45;;;;;;;4.22;1.30;;;20.00;99.90;;;;;;5050043;28;20044;-83
2022/06/14 11:27:29;;;;;;;6.43;1.02;;;19.80;99.90;;;;;;5050227;28;20049;-83
2022/06/14 11:30:09;;;;;;;3.83;1.45;;;19.70;99.90;;;;;;5054179;28;20468;-83
2022/06/14 11:32:40;;;;;;;6.07;1.88;;;19.80;99.90;;;;;;5054294;28;20045;-84
2022/06/14 11:35:33;;;;;;;5.45;1.33;;;20.00;99.90;;;;;;5054211;28;20053;-83
2022/06/14 11:38:07;;;;;;;7.78;1.20;;;19.80;99.90;;;;;;5054128;28;20559;-84
2022/06/14 11:40:37;;;;;;;3.45;1.13;;;19.90;99.90;;;;;;5053971;28;20084;-83
2022/06/14 11:43:32;;;;;;;5.75;1.55;;;20.10;99.90;;;;;;5054046;28;20053;-82
2022/06/14 11:46:20;;;;;;;5.90;1.30;;;20.00;99.90;;;;;;5053766;28;20053;-82
2022/06/14 11:49:10;;;;;;;5.63;1.25;;;20.00;99.90;;;;;;5053929;28;20049;-84
2022/06/14 11:51:45;;;;;;;8.70;1.38;;;19.90;99.90;;;;;;5053974;28;20400;-83
2022/06/14 11:54:43;;;;;;;;;;;20.20;99.90;;;;;;5054103;28;20041;-82
2022/06/14 11:57:41;;;;;;;9.27;1.48;;;20.40;99.90;;;;;;4992027;28;19933;-82
2022/06/14 12:00:37;;;;;;;6.13;1.30;;;21.00;99.90;;;;;;4991832;28;20050;-84
2022/06/14 12:03:20;;;;;;;5.43;1.60;;;21.30;99.90;;;;;;4992063;28;20410;-82
2022/06/14 12:05:48;;;;;;;5.07;1.30;;;21.70;99.90;;;;;;4991783;28;20425;-83
2022/06/14 12:08:31;;;;;;;7.35;1.67;;;22.10;99.90;;;;;;4991850;28;20047;-83
2022/06/14 12:11:25;;;;;;;6.72;1.42;;;22.30;99.90;;;;;;4991925;28;20167;-83
2022/06/14 12:14:36;;;;;;;8.88;2.85;;;22.10;99.90;;;;;;4992031;28;20054;-81
2022/06/14 12:17:17;;;;;;;3.00;1.45;;;21.90;99.90;;;;;;4991874;28;20060;-83
2022/06/14 12:19:53;;;;;;;7.80;1.30;;;21.70;99.90;;;;;;4991454;28;20058;-83
2022/06/14 12:22:41;;;;;;;4.63;2.13;;;21.40;99.90;;;;;;4991589;28;20537;-84
2022/06/14 12:28:15;;;;;;;4.88;1.30;;;21.30;99.90;;;;;;4991576;28;20426;-83
2022/06/14 12:30:42;;;;;;;6.10;1.00;;;21.10;99.90;;;;;;4991269;28;20049;-86
2022/06/14 12:33:19;;;;;;;3.25;0.90;;;20.90;99.90;;;;;;5013867;28;20139;-86
2022/06/14 12:36:09;;;;;;;5.75;0.95;;;20.80;99.90;;;;;;5035147;28;20048;-86
2022/06/14 12:38:39;;;;;;;3.38;0.85;;;20.80;99.90;;;;;;5052933;28;20062;-83
2022/06/14 12:41:27;;;;;;;9.50;1.00;;;20.70;99.90;;;;;;5017018;28;20071;-81
2022/06/14 12:44:23;;;;;;;4.00;1.15;;;20.70;99.90;;;;;;5053039;28;20041;-84
2022/06/14 12:46:51;;;;;;;4.60;1.20;;;20.30;99.90;;;;;;5053192;28;20088;-87
2022/06/14 12:49:33;;;;;;;4.53;1.30;;;20.30;99.90;;;;;;5053116;28;20086;-83
2022/06/14 12:51:58;;;;;;;13.00;1.70;;;20.00;99.90;;;;;;5053049;28;20052;-81
2022/06/14 12:54:32;;;;;;;6.07;1.30;;;20.10;99.90;;;;;;5052646;28;20126;-86
2022/06/14 12:57:16;;;;;;;5.60;1.45;;;20.20;99.90;;;;;;5052389;28;20044;-87
2022/06/14 13:00:03;;;;;;;7.45;1.40;;;20.10;99.90;;;;;;5052637;28;20672;-82
2022/06/14 13:02:56;;;;;;;5.32;1.50;;;20.10;99.90;;;;;;5052757;28;20041;-82
2022/06/14 13:05:34;;;;;;;6.32;1.45;;;20.20;99.90;;;;;;5052467;28;20122;-83
2022/06/14 13:08:22;;;;;;;4.90;1.30;;;20.20;99.90;;;;;;5052565;28;20040;-85
2022/06/14 13:11:12;;;;;;;6.57;1.38;;;20.20;99.90;;;;;;5052443;28;20041;-82
2022/06/14 13:13:49;;;;;;;3.70;1.38;;;20.30;99.90;;;;;;5052160;28;20077;-84
2022/06/14 13:16:46;;;;;;;5.55;1.20;;;20.40;99.90;;;;;;5052456;28;20064;-83
2022/06/14 13:19:33;;;;;;;6.80;1.35;;;20.40;99.90;;;;;;5034272;28;20052;-84
2022/06/14 13:22:22;;;;;;;3.90;1.20;;;20.40;99.90;;;;;;5052260;28;20033;-84
2022/06/14 13:25:00;;;;;;;6.03;1.05;;;20.40;99.90;;;;;;5051911;28;20055;-83
2022/06/14 13:27:51;;;;;;;4.28;1.10;;;20.50;99.90;;;;;;5051891;28;20098;-85
2022/06/14 13:30:26;;;;;;;5.03;1.13;;;20.70;99.90;;;;;;5034047;28;20097;-84
2022/06/14 13:33:43;;;;;;;5.50;0.93;;;20.90;99.90;;;;;;5034263;28;20140;-84
2022/06/14 13:36:22;;;;;;;5.57;0.88;;;21.20;99.90;;;;;;4990219;28;20065;-83
2022/06/14 13:38:56;;;;;;;3.42;1.00;;;21.30;99.90;;;;;;4973758;28;20182;-83
2022/06/14 13:42:00;;;;;;;2.42;1.00;;;21.30;99.90;;;;;;4973797;28;20449;-84
2022/06/14 13:44:43;;;;;;;5.25;1.08;;;21.50;99.90;;;;;;4973660;28;20046;-83
2022/06/14 13:47:19;;;;;;;4.32;1.05;;;21.40;99.90;;;;;;4989943;28;20066;-83
2022/06/14 13:50:02;;;;;;;2.65;0.93;;;21.60;99.90;;;;;;4973803;28;20064;-86
2022/06/14 13:52:44;;;;;;;5.40;1.10;;;21.60;99.90;;;;;;4989665;28;20564;-84
2022/06/14 13:55:12;;;;;;;7.07;0.90;;;21.70;99.20;;;;;;4989405;28;20062;-85
2022/06/14 13:57:49;;;;;;;2.97;1.00;;;21.70;99.90;;;;;;4973534;28;20082;-84
2022/06/14 14:00:35;;;;;;;2.92;1.08;;;21.80;99.90;;;;;;4989622;28;20615;-81
2022/06/14 14:03:29;;;;;;;4.72;1.42;;;21.90;99.90;;;;;;4973481;28;20540;-84
2022/06/14 14:06:50;;;;;;;3.45;0.98;;;21.90;99.90;;;;;;4989669;28;20086;-83
2022/06/14 14:10:03;;;;;;;3.90;1.10;;;21.80;99.90;;;;;;4950833;28;20067;-83
2022/06/14 14:12:40;;;;;;;5.07;1.20;;;21.70;99.90;;;;;;4965671;28;20202;-85
2022/06/14 14:15:33;;;;;;;3.83;1.27;;;21.70;99.90;;;;;;4969873;28;20086;-81
2022/06/14 14:18:04;;;;;;;5.40;1.65;;;21.70;99.90;;;;;;4970281;28;20137;-82